Terminal Aerodrome Forecast
Issued by NWS Twin Cities, MN

Home | Current Version | Previous Version | Text Only | Print | Product List | Glossary Off
Versions: 1 2 3 4 5 6 7 8 9 10 11 12 13 14 15 16 17

000
FTUS43 KMPX 241136
TAFSTC
TAF
KSTC 241136Z 2412/2512 09005KT P6SM VCSH OVC060
     FM241400 10010KT 6SM -RA BR OVC040
      TEMPO 2417/2421 3SM -RA BR OVC025
     FM250000 11008KT P6SM OVC020
     FM250300 09006KT 4SM -RA BR OVC012=

USA.gov is the U.S. government's official web portal to all federal, state and local government web resources and services.